createdAt,value
2022-10-05T00:01:42.925Z,8.00
2022-10-05T00:04:17.172Z,7.87
2022-10-05T00:06:45.670Z,7.63
2022-10-05T00:09:20.641Z,7.53
2022-10-05T00:11:47.874Z,8.40
2022-10-05T00:14:25.683Z,7.57
2022-10-05T00:16:52.208Z,8.20
2022-10-05T00:19:27.185Z,7.43
2022-10-05T00:21:58.719Z,7.50
2022-10-05T00:24:25.181Z,7.70
2022-10-05T00:26:56.911Z,7.83
2022-10-05T00:29:24.645Z,8.53
2022-10-05T00:31:51.371Z,7.77
2022-10-05T00:34:17.936Z,7.40
2022-10-05T00:36:45.303Z,7.83
2022-10-05T00:39:11.918Z,7.40
2022-10-05T00:41:55.616Z,7.83
2022-10-05T00:44:25.053Z,7.63
2022-10-05T00:46:55.818Z,7.60
2022-10-05T00:49:31.280Z,7.27
2022-10-05T00:52:06.886Z,8.40
2022-10-05T00:54:38.931Z,7.43
2022-10-05T00:57:28.421Z,7.10
2022-10-05T01:00:15.645Z,7.30
2022-10-05T01:03:03.801Z,7.30
2022-10-05T01:05:39.941Z,7.57
2022-10-05T01:08:24.910Z,7.90
2022-10-05T01:10:57.647Z,7.33
2022-10-05T01:14:16.510Z,7.63
2022-10-05T01:16:52.210Z,7.63
2022-10-05T01:19:54.806Z,7.70
2022-10-05T01:23:16.786Z,8.17
2022-10-05T01:25:55.146Z,8.30
2022-10-05T01:28:29.822Z,8.07
2022-10-05T01:31:10.518Z,7.83
2022-10-05T01:33:49.142Z,8.17
2022-10-05T01:36:31.809Z,8.43
2022-10-05T01:39:07.475Z,8.90
2022-10-05T01:41:43.016Z,8.50
2022-10-05T01:44:26.753Z,8.20
2022-10-05T01:47:27.355Z,8.20
2022-10-05T01:50:08.258Z,8.20
2022-10-05T01:52:46.243Z,8.57
2022-10-05T01:55:20.067Z,8.47
2022-10-05T01:58:18.022Z,7.47
2022-10-05T02:01:09.395Z,8.03
2022-10-05T02:03:38.824Z,7.93
2022-10-05T02:06:20.816Z,8.57
2022-10-05T02:08:50.940Z,8.10
2022-10-05T02:11:18.486Z,8.43
2022-10-05T02:13:50.771Z,8.40
2022-10-05T02:16:22.980Z,7.90
2022-10-05T02:18:58.586Z,8.03
2022-10-05T02:21:26.805Z,8.33
2022-10-05T02:23:57.126Z,8.10
2022-10-05T02:26:25.534Z,8.40
2022-10-05T02:29:03.031Z,7.70
2022-10-05T02:31:36.365Z,7.97
2022-10-05T02:34:22.728Z,9.17
2022-10-05T02:36:59.159Z,8.10
2022-10-05T02:40:04.835Z,8.27
2022-10-05T02:42:57.065Z,8.17
2022-10-05T02:45:46.134Z,8.50
2022-10-05T02:48:28.474Z,8.50
2022-10-05T02:51:28.632Z,8.23
2022-10-05T02:54:14.216Z,8.77
2022-10-05T02:57:21.129Z,7.50
2022-10-05T02:59:53.189Z,8.00
2022-10-05T03:02:24.758Z,8.57
2022-10-05T03:05:00.179Z,7.67
2022-10-05T03:07:34.308Z,8.77
2022-10-05T03:10:06.627Z,8.17
2022-10-05T03:12:51.393Z,7.70
2022-10-05T03:15:55.364Z,8.20
2022-10-05T03:18:34.125Z,8.60
2022-10-05T03:21:08.515Z,8.73
2022-10-05T03:23:45.400Z,8.37
2022-10-05T03:26:59.767Z,8.70
2022-10-05T03:29:41.101Z,8.07
2022-10-05T03:32:32.324Z,8.90
2022-10-05T03:35:12.179Z,9.27
2022-10-05T03:37:59.206Z,8.53
2022-10-05T03:40:43.848Z,9.33
2022-10-05T03:43:22.491Z,9.07
2022-10-05T03:46:00.499Z,9.83
2022-10-05T03:48:38.125Z,8.90
2022-10-05T03:51:16.185Z,9.40
2022-10-05T03:53:47.394Z,9.30
2022-10-05T03:56:33.549Z,9.00
2022-10-05T03:59:04.063Z,9.03
2022-10-05T04:01:43.540Z,9.10
2022-10-05T04:04:16.141Z,8.30
2022-10-05T04:06:47.806Z,9.63
2022-10-05T04:09:24.311Z,9.33
2022-10-05T04:11:52.025Z,8.93
2022-10-05T04:14:44.517Z,9.90
2022-10-05T04:17:17.872Z,9.50
2022-10-05T04:19:49.635Z,10.27
2022-10-05T04:22:21.222Z,9.70
2022-10-05T04:24:53.303Z,10.87
2022-10-05T04:27:22.616Z,9.33
2022-10-05T04:29:54.145Z,9.43
2022-10-05T04:32:35.891Z,10.63
2022-10-05T04:35:13.622Z,9.50
2022-10-05T04:38:18.685Z,11.77
2022-10-05T04:41:25.271Z,10.43
2022-10-05T04:44:06.410Z,11.33
2022-10-05T04:47:01.315Z,10.43
2022-10-05T04:50:13.043Z,9.97
2022-10-05T04:53:28.459Z,10.93
2022-10-05T04:56:20.940Z,10.77
2022-10-05T04:58:53.401Z,11.67
2022-10-05T05:01:46.437Z,12.40
2022-10-05T05:04:34.166Z,11.87
2022-10-05T05:07:23.373Z,12.20
2022-10-05T05:09:57.444Z,11.53
2022-10-05T05:12:23.813Z,11.37
2022-10-05T05:14:56.294Z,12.47
2022-10-05T05:17:52.772Z,12.03
2022-10-05T05:20:24.658Z,12.00
2022-10-05T05:23:08.275Z,12.97
2022-10-05T05:25:48.377Z,13.03
2022-10-05T05:28:23.375Z,12.93
2022-10-05T05:31:02.301Z,12.87
2022-10-05T05:33:33.651Z,12.83
2022-10-05T05:36:11.180Z,13.37
2022-10-05T05:39:04.903Z,12.97
2022-10-05T05:41:39.260Z,12.83
2022-10-05T05:44:26.774Z,13.23
2022-10-05T05:47:08.093Z,12.20
2022-10-05T05:50:10.971Z,13.57
2022-10-05T05:52:52.712Z,13.40
2022-10-05T05:55:42.684Z,12.30
2022-10-05T05:58:19.409Z,12.10
2022-10-05T06:01:04.268Z,13.10
2022-10-05T06:03:43.661Z,12.80
2022-10-05T06:06:12.157Z,13.00
2022-10-05T06:08:43.440Z,11.97
2022-10-05T06:11:22.918Z,13.50
2022-10-05T06:13:49.679Z,12.43
2022-10-05T06:16:37.204Z,12.17
2022-10-05T06:19:16.205Z,13.03
2022-10-05T06:21:53.673Z,12.43
2022-10-05T06:24:37.500Z,11.63
2022-10-05T06:27:22.284Z,12.60
2022-10-05T06:29:51.541Z,12.23
2022-10-05T06:32:30.879Z,13.10
2022-10-05T06:35:07.671Z,11.80
2022-10-05T06:38:12.275Z,10.97
2022-10-05T06:41:00.078Z,11.63
2022-10-05T06:43:39.533Z,10.67
2022-10-05T06:46:14.593Z,11.37
2022-10-05T06:48:51.420Z,12.23
2022-10-05T06:51:32.226Z,11.33
2022-10-05T06:54:07.498Z,11.50
2022-10-05T06:56:45.706Z,11.60
2022-10-05T06:59:43.332Z,11.20
2022-10-05T07:02:25.901Z,11.20
2022-10-05T07:05:30.048Z,10.60
2022-10-05T07:08:02.999Z,11.20
2022-10-05T07:10:51.674Z,10.83
2022-10-05T07:13:45.959Z,11.03
2022-10-05T07:16:22.660Z,10.90
2022-10-05T07:19:25.670Z,10.67
2022-10-05T07:22:23.569Z,11.40
2022-10-05T07:24:58.121Z,10.50
2022-10-05T07:27:28.619Z,11.10
2022-10-05T07:30:04.647Z,10.63
2022-10-05T07:32:45.851Z,11.00
2022-10-05T07:36:03.286Z,11.40
2022-10-05T07:38:33.006Z,10.80
2022-10-05T07:41:06.281Z,10.60
2022-10-05T07:44:01.580Z,10.23
2022-10-05T07:46:41.470Z,10.07
2022-10-05T07:49:32.199Z,10.67
2022-10-05T07:52:01.971Z,10.57
2022-10-05T07:54:45.302Z,9.77
2022-10-05T07:57:30.282Z,9.57
2022-10-05T08:00:06.867Z,9.53
2022-10-05T08:02:44.431Z,8.83
2022-10-05T08:05:31.986Z,9.27
2022-10-05T08:08:06.866Z,9.77
2022-10-05T08:10:44.718Z,8.60
2022-10-05T08:13:21.277Z,8.27
2022-10-05T08:15:51.890Z,8.07
2022-10-05T08:18:49.323Z,7.90
2022-10-05T08:21:23.363Z,8.77
2022-10-05T08:24:00.242Z,8.00
2022-10-05T08:27:01.758Z,8.17
2022-10-05T08:29:39.674Z,7.93
2022-10-05T08:32:12.588Z,8.33
2022-10-05T08:34:48.263Z,7.57
2022-10-05T08:37:27.599Z,7.43
2022-10-05T08:40:19.168Z,7.20
2022-10-05T08:43:30.594Z,7.03
2022-10-05T08:46:15.084Z,7.70
2022-10-05T08:49:05.711Z,6.97
2022-10-05T08:51:52.032Z,7.17
2022-10-05T08:54:36.611Z,7.53
2022-10-05T08:57:32.774Z,7.20
2022-10-05T09:00:09.175Z,8.37
2022-10-05T09:02:39.996Z,8.17
2022-10-05T09:05:27.972Z,8.13
2022-10-05T09:08:00.342Z,7.50
2022-10-05T09:10:51.632Z,7.47
2022-10-05T09:13:47.278Z,7.23
2022-10-05T09:16:23.864Z,6.70
2022-10-05T09:19:22.955Z,7.13
2022-10-05T09:22:12.082Z,7.07
2022-10-05T09:24:54.693Z,6.00
2022-10-05T09:27:34.229Z,6.33
2022-10-05T09:30:28.573Z,5.77
2022-10-05T09:33:16.388Z,6.20
2022-10-05T09:36:07.573Z,6.30
2022-10-05T09:38:57.347Z,6.87
2022-10-05T09:41:41.735Z,6.83
2022-10-05T09:44:36.433Z,6.17
2022-10-05T09:47:18.127Z,6.60
2022-10-05T09:49:54.033Z,6.30
2022-10-05T09:53:02.090Z,6.00
2022-10-05T09:55:53.738Z,5.23
2022-10-05T09:58:28.347Z,5.80
2022-10-05T10:01:09.238Z,5.30
2022-10-05T10:04:16.223Z,4.93
2022-10-05T10:07:22.765Z,5.50
2022-10-05T10:10:32.094Z,4.97
2022-10-05T10:13:36.558Z,5.03
2022-10-05T10:16:09.488Z,5.07
2022-10-05T10:18:52.702Z,4.77
2022-10-05T10:21:34.587Z,4.30
2022-10-05T10:24:15.827Z,4.57
2022-10-05T10:27:07.569Z,4.40
2022-10-05T10:29:42.894Z,4.37
2022-10-05T10:32:24.518Z,3.60
2022-10-05T10:35:08.671Z,4.20
2022-10-05T10:38:02.625Z,4.20
2022-10-05T10:41:06.759Z,4.00
2022-10-05T10:43:58.413Z,3.77
2022-10-05T10:46:53.967Z,3.93
2022-10-05T10:49:32.790Z,4.03
2022-10-05T10:52:43.878Z,3.87
2022-10-05T10:55:38.433Z,3.40
2022-10-05T10:58:53.170Z,3.70
2022-10-05T11:01:26.560Z,4.10
2022-10-05T11:04:04.440Z,3.40
2022-10-05T11:07:06.656Z,3.10
2022-10-05T11:10:20.031Z,3.10
2022-10-05T11:13:12.404Z,3.10
2022-10-05T11:15:56.207Z,2.60
2022-10-05T11:18:30.718Z,3.10
2022-10-05T11:21:21.739Z,2.67
2022-10-05T11:23:56.852Z,2.70
2022-10-05T11:27:03.286Z,2.90
2022-10-05T11:29:35.735Z,2.93
2022-10-05T11:32:21.074Z,2.57
2022-10-05T11:35:03.533Z,2.70
2022-10-05T11:37:53.615Z,2.33
2022-10-05T11:40:38.778Z,2.50
2022-10-05T11:43:29.964Z,2.63
2022-10-05T11:46:15.143Z,2.20
2022-10-05T11:48:50.685Z,2.30
2022-10-05T11:51:34.170Z,2.27
2022-10-05T11:54:09.697Z,2.20
2022-10-05T11:56:40.387Z,2.30
2022-10-05T11:59:21.293Z,2.33
2022-10-05T12:01:52.959Z,2.50
2022-10-05T12:04:45.333Z,2.80
2022-10-05T12:07:24.607Z,2.20
2022-10-05T12:10:16.854Z,2.30
2022-10-05T12:13:02.569Z,2.10
2022-10-05T12:15:37.408Z,2.40
2022-10-05T12:18:13.590Z,2.73
2022-10-05T12:20:54.867Z,2.70
2022-10-05T12:23:47.793Z,2.83
2022-10-05T12:26:18.532Z,2.70
2022-10-05T12:28:47.937Z,2.63
2022-10-05T12:31:20.353Z,2.47
2022-10-05T12:34:01.791Z,2.70
2022-10-05T12:37:03.193Z,2.70
2022-10-05T12:39:47.280Z,2.40
2022-10-05T12:42:30.367Z,2.87
2022-10-05T12:45:10.266Z,2.90
2022-10-05T12:47:39.935Z,3.27
2022-10-05T12:50:18.440Z,2.80
2022-10-05T12:52:50.816Z,2.60
2022-10-05T12:55:26.206Z,2.40
2022-10-05T12:58:07.765Z,2.50
2022-10-05T13:00:41.789Z,2.83
2022-10-05T13:03:28.597Z,2.60
2022-10-05T13:06:07.657Z,2.80
2022-10-05T13:08:50.433Z,2.70
2022-10-05T13:11:42.816Z,3.00
2022-10-05T13:14:31.376Z,2.80
2022-10-05T13:17:12.646Z,2.77
2022-10-05T13:19:57.388Z,2.60
2022-10-05T13:22:30.895Z,2.80
2022-10-05T13:25:33.438Z,2.53
2022-10-05T13:28:30.294Z,2.63
2022-10-05T13:31:14.227Z,2.60
2022-10-05T13:34:30.505Z,2.90
2022-10-05T13:37:08.503Z,3.13
2022-10-05T13:40:09.093Z,2.67
2022-10-05T13:43:15.592Z,2.70
2022-10-05T13:46:14.144Z,2.80
2022-10-05T13:48:58.306Z,2.33
2022-10-05T13:51:32.572Z,2.60
2022-10-05T13:54:41.124Z,2.93
2022-10-05T13:57:51.589Z,2.63
2022-10-05T14:00:27.034Z,2.90
2022-10-05T14:03:04.287Z,2.73
2022-10-05T14:05:38.181Z,3.10
2022-10-05T14:08:08.711Z,2.57
2022-10-05T14:10:46.795Z,2.70
2022-10-05T14:13:24.378Z,2.60
2022-10-05T14:16:19.779Z,2.77
2022-10-05T14:19:42.137Z,2.70
2022-10-05T14:22:25.051Z,2.33
2022-10-05T14:24:57.241Z,2.90
2022-10-05T14:27:33.333Z,2.90
2022-10-05T14:30:23.632Z,3.20
2022-10-05T14:33:08.919Z,3.73
2022-10-05T14:35:58.279Z,2.77
2022-10-05T14:38:58.139Z,2.60
2022-10-05T14:41:28.300Z,2.90
2022-10-05T14:44:17.327Z,2.43
2022-10-05T14:46:58.269Z,3.90
2022-10-05T14:49:38.991Z,3.10
2022-10-05T14:52:38.757Z,2.40
2022-10-05T14:55:21.457Z,2.30
2022-10-05T14:58:12.831Z,3.03
2022-10-05T15:01:13.892Z,2.50
2022-10-05T15:03:48.493Z,2.30
2022-10-05T15:06:26.886Z,3.50
2022-10-05T15:09:17.915Z,2.50
2022-10-05T15:11:47.442Z,2.90
2022-10-05T15:14:31.769Z,3.03
2022-10-05T15:17:03.184Z,2.50
2022-10-05T15:20:02.394Z,2.30
2022-10-05T15:22:42.682Z,2.77
2022-10-05T15:25:22.224Z,2.53
2022-10-05T15:28:10.031Z,2.77
2022-10-05T15:30:41.398Z,2.63
2022-10-05T15:33:19.665Z,3.00
2022-10-05T15:36:02.128Z,3.07
2022-10-05T15:38:50.684Z,2.70
2022-10-05T15:41:22.230Z,2.80
2022-10-05T15:44:06.624Z,2.77
2022-10-05T15:46:40.472Z,2.90
2022-10-05T15:49:49.499Z,2.70
2022-10-05T15:53:11.039Z,2.70
2022-10-05T15:55:58.515Z,2.43
2022-10-05T15:58:48.745Z,2.90
2022-10-05T16:01:29.230Z,3.63
2022-10-05T16:04:03.685Z,2.60
2022-10-05T16:06:54.900Z,3.20
2022-10-05T16:09:34.228Z,2.80
2022-10-05T16:12:09.852Z,3.20
2022-10-05T16:14:45.680Z,2.80
2022-10-05T16:17:51.245Z,3.20
2022-10-05T16:20:28.950Z,3.27
2022-10-05T16:23:27.679Z,2.70
2022-10-05T16:26:07.142Z,3.00
2022-10-05T16:28:42.291Z,3.13
2022-10-05T16:31:18.651Z,3.63
2022-10-05T16:33:55.224Z,3.10
2022-10-05T16:36:46.781Z,3.10
2022-10-05T16:39:20.545Z,2.90
2022-10-05T16:41:56.446Z,3.17
2022-10-05T16:44:34.783Z,3.40
2022-10-05T16:47:22.910Z,2.90
2022-10-05T16:50:02.403Z,3.50
2022-10-05T16:52:28.993Z,3.20
2022-10-05T16:55:03.126Z,3.00
2022-10-05T16:57:32.156Z,3.43
2022-10-05T17:00:19.820Z,2.90
2022-10-05T17:03:04.975Z,2.60
2022-10-05T17:05:47.843Z,3.13
2022-10-05T17:08:46.623Z,6.50
2022-10-05T17:11:40.190Z,3.10
2022-10-05T17:14:15.039Z,3.03
2022-10-05T17:17:03.450Z,2.60
2022-10-05T17:19:35.935Z,3.00
2022-10-05T17:22:05.343Z,2.70
2022-10-05T17:25:08.573Z,2.80
2022-10-05T17:27:50.863Z,3.07
2022-10-05T17:30:31.648Z,2.83
2022-10-05T17:33:04.534Z,3.30
2022-10-05T17:35:51.185Z,2.93
2022-10-05T17:38:48.365Z,3.00
2022-10-05T17:41:16.765Z,2.70
2022-10-05T17:44:13.268Z,2.90
2022-10-05T17:47:03.788Z,2.80
2022-10-05T17:50:17.311Z,2.77
2022-10-05T17:53:03.338Z,3.40
2022-10-05T17:55:32.878Z,2.83
2022-10-05T17:58:27.402Z,2.97
2022-10-05T18:00:57.213Z,3.10
2022-10-05T18:03:36.299Z,3.10
2022-10-05T18:06:24.681Z,3.27
2022-10-05T18:09:13.743Z,4.03
2022-10-05T18:11:44.903Z,4.23
2022-10-05T18:14:18.723Z,3.67
2022-10-05T18:17:05.381Z,3.07
2022-10-05T18:19:33.160Z,3.47
2022-10-05T18:22:17.809Z,3.23
2022-10-05T18:24:52.977Z,3.93
2022-10-05T18:27:34.288Z,3.57
2022-10-05T18:30:16.857Z,3.70
2022-10-05T18:33:05.124Z,3.30
2022-10-05T18:36:01.018Z,3.10
2022-10-05T18:38:45.327Z,3.10
2022-10-05T18:41:21.062Z,3.33
2022-10-05T18:43:59.378Z,2.90
2022-10-05T18:46:38.059Z,2.43
2022-10-05T18:49:38.632Z,3.00
2022-10-05T18:52:13.333Z,3.03
2022-10-05T18:54:55.067Z,3.03
2022-10-05T18:57:53.711Z,3.00
2022-10-05T19:00:21.911Z,3.20
2022-10-05T19:02:50.021Z,2.83
2022-10-05T19:05:46.228Z,2.70
2022-10-05T19:08:18.761Z,2.93
2022-10-05T19:11:05.017Z,2.47
2022-10-05T19:13:51.007Z,2.87
2022-10-05T19:16:48.761Z,2.77
2022-10-05T19:19:34.062Z,3.87
2022-10-05T19:22:31.130Z,2.53
2022-10-05T19:25:14.946Z,2.83
2022-10-05T19:27:56.868Z,2.60
2022-10-05T19:30:25.236Z,2.80
2022-10-05T19:33:13.309Z,2.93
2022-10-05T19:35:58.633Z,2.70
2022-10-05T19:38:57.693Z,2.40
2022-10-05T19:41:54.626Z,2.90
2022-10-05T19:44:29.845Z,2.57
2022-10-05T19:47:05.885Z,2.50
2022-10-05T19:49:51.533Z,2.50
2022-10-05T19:52:41.059Z,2.70
2022-10-05T19:55:13.801Z,2.80
2022-10-05T19:57:57.583Z,2.60
2022-10-05T20:00:25.423Z,2.40
2022-10-05T20:03:14.537Z,2.33
2022-10-05T20:05:41.105Z,2.33
2022-10-05T20:08:15.016Z,2.10
2022-10-05T20:10:41.431Z,2.03
2022-10-05T20:13:19.595Z,1.87
2022-10-05T20:16:33.643Z,1.60
2022-10-05T20:19:18.655Z,2.13
2022-10-05T20:22:00.435Z,1.90
2022-10-05T20:24:28.334Z,1.73
2022-10-05T20:27:02.712Z,2.00
2022-10-05T20:29:30.440Z,1.80
2022-10-05T20:31:57.460Z,1.70
2022-10-05T20:34:24.389Z,1.60
2022-10-05T20:36:51.507Z,2.13
2022-10-05T20:39:18.827Z,1.50
2022-10-05T20:41:45.884Z,1.87
2022-10-05T20:44:13.210Z,1.80
2022-10-05T20:46:42.605Z,1.73
2022-10-05T20:49:10.985Z,1.70
2022-10-05T20:51:38.551Z,1.80
2022-10-05T20:54:05.303Z,1.67
2022-10-05T20:56:32.320Z,1.70
2022-10-05T20:58:58.892Z,1.60
2022-10-05T21:01:30.232Z,1.70
2022-10-05T21:03:56.677Z,1.70
2022-10-05T21:06:26.251Z,2.03
2022-10-05T21:08:52.783Z,1.73
2022-10-05T21:11:19.407Z,1.53
2022-10-05T21:13:45.982Z,1.97
2022-10-05T21:16:16.827Z,1.80
2022-10-05T21:18:45.367Z,1.70
2022-10-05T21:21:11.794Z,1.97
2022-10-05T21:23:38.204Z,1.73
2022-10-05T21:26:04.606Z,1.70
2022-10-05T21:28:31.765Z,1.87
2022-10-05T21:30:58.655Z,1.53
2022-10-05T21:33:25.769Z,1.83
2022-10-05T21:35:52.647Z,2.10
2022-10-05T21:38:19.043Z,2.00
2022-10-05T21:40:45.676Z,1.90
2022-10-05T21:43:13.361Z,1.50
2022-10-05T21:45:40.163Z,2.13
2022-10-05T21:48:07.594Z,1.83
2022-10-05T21:50:34.176Z,1.73
2022-10-05T21:53:02.563Z,1.80
2022-10-05T21:55:29.019Z,1.47
2022-10-05T21:57:57.079Z,1.93
2022-10-05T22:00:23.486Z,1.60
2022-10-05T22:02:49.900Z,1.83
2022-10-05T22:05:16.510Z,1.80
2022-10-05T22:07:43.000Z,1.80
2022-10-05T22:10:09.733Z,2.20
2022-10-05T22:12:36.147Z,1.37
2022-10-05T22:15:03.010Z,1.83
2022-10-05T22:17:31.726Z,2.13
2022-10-05T22:19:59.099Z,1.90
2022-10-05T22:22:26.660Z,2.63
2022-10-05T22:24:54.470Z,1.50
2022-10-05T22:27:25.835Z,0.90
2022-10-05T22:29:52.523Z,0.70
2022-10-05T22:32:18.919Z,0.70
2022-10-05T22:34:45.718Z,0.70
2022-10-05T22:37:15.775Z,0.50
2022-10-05T22:39:43.021Z,0.60
2022-10-05T22:42:09.845Z,0.70
2022-10-05T22:44:36.449Z,0.50
2022-10-05T22:47:03.497Z,0.80
2022-10-05T22:49:29.904Z,0.60
2022-10-05T22:51:56.497Z,0.63
2022-10-05T22:54:26.288Z,0.67
2022-10-05T22:56:55.246Z,0.50
2022-10-05T22:59:21.622Z,0.70
2022-10-05T23:01:48.095Z,0.40
2022-10-05T23:04:14.525Z,0.70
2022-10-05T23:06:40.962Z,1.17
2022-10-05T23:09:07.367Z,0.60
2022-10-05T23:11:33.818Z,0.83
2022-10-05T23:14:00.448Z,0.60
2022-10-05T23:16:28.246Z,0.50
2022-10-05T23:18:55.099Z,0.77
2022-10-05T23:21:23.829Z,0.53
2022-10-05T23:23:51.272Z,0.70
2022-10-05T23:26:25.033Z,0.70
2022-10-05T23:28:51.703Z,0.70
2022-10-05T23:31:21.820Z,0.60
2022-10-05T23:33:48.631Z,0.60
2022-10-05T23:36:17.583Z,0.60
2022-10-05T23:38:44.328Z,0.50
2022-10-05T23:41:11.010Z,0.40
2022-10-05T23:43:37.439Z,0.43
2022-10-05T23:46:06.133Z,0.60
2022-10-05T23:48:33.194Z,0.50
2022-10-05T23:50:59.967Z,0.57
2022-10-05T23:53:26.546Z,0.40
2022-10-05T23:55:53.566Z,0.50
2022-10-05T23:58:20.965Z,0.60
